Time;durP1;ratioP1;P1;durP2;ratioP2;P2;SDS_P1;SDS_P2;PMS_P1;PMS_P2;Temp;Humidity;BMP_temperature;BMP_pressure;BME280_temperature;BME280_humidity;BME280_pressure;Samples;Min_cycle;Max_cycle;Signal;HPM_P1;HPM_P2
2023/11/06 00:00:57;;;;;;;18.88;6.63;;;14.40;66.50;;;;;;6265907;28;20024;-68
2023/11/06 00:03:58;;;;;;;12.88;5.68;;;14.40;66.70;;;;;;6273664;28;20123;-70
2023/11/06 00:06:58;;;;;;;11.20;6.18;;;14.30;66.80;;;;;;6272852;28;20029;-68
2023/11/06 00:10:00;;;;;;;11.73;6.63;;;14.30;67.00;;;;;;6275587;28;20115;-68
2023/11/06 00:13:03;;;;;;;14.10;6.10;;;14.40;67.00;;;;;;6288968;28;20051;-68
2023/11/06 00:16:05;;;;;;;14.80;6.40;;;14.40;67.00;;;;;;6271641;28;20047;-69
2023/11/06 00:19:06;;;;;;;11.15;6.18;;;14.40;67.00;;;;;;6287991;28;20028;-68
2023/11/06 00:22:07;;;;;;;22.13;6.65;;;14.40;67.00;;;;;;6289514;28;20492;-70
2023/11/06 00:25:08;;;;;;;13.60;5.15;;;14.40;66.90;;;;;;6289362;28;20025;-67
2023/11/06 00:28:08;;;;;;;8.98;5.15;;;14.50;67.00;;;;;;6287719;28;20036;-68
2023/11/06 00:31:10;;;;;;;12.13;5.13;;;14.40;67.00;;;;;;6289561;28;20377;-68
2023/11/06 00:34:11;;;;;;;15.13;5.00;;;14.40;67.10;;;;;;6287964;28;20072;-68
2023/11/06 00:37:12;;;;;;;10.32;4.50;;;14.50;67.10;;;;;;6289306;28;20086;-68
2023/11/06 00:40:13;;;;;;;11.43;4.72;;;14.50;67.10;;;;;;6289122;28;20075;-68
2023/11/06 00:43:14;;;;;;;8.45;4.07;;;14.50;66.90;;;;;;6288999;28;20119;-68
2023/11/06 00:46:15;;;;;;;6.32;3.70;;;14.50;66.80;;;;;;6289040;28;20040;-69
2023/11/06 00:49:16;;;;;;;9.30;4.68;;;14.50;66.90;;;;;;6289074;28;20035;-69
2023/11/06 00:52:17;;;;;;;6.68;4.00;;;14.50;66.80;;;;;;6289279;28;20390;-69
2023/11/06 00:55:17;;;;;;;8.07;4.05;;;14.50;66.70;;;;;;6288588;28;20238;-69
2023/11/06 00:58:18;;;;;;;7.93;3.88;;;14.50;66.90;;;;;;6287206;28;20421;-69
2023/11/06 01:01:19;;;;;;;9.60;4.40;;;14.50;66.70;;;;;;6287733;28;20040;-69
2023/11/06 01:04:20;;;;;;;10.98;4.50;;;14.40;66.70;;;;;;6289748;28;20097;-69
2023/11/06 01:07:22;;;;;;;9.00;4.43;;;14.40;66.80;;;;;;6287818;28;20187;-69
2023/11/06 01:10:25;;;;;;;14.13;4.65;;;14.30;66.90;;;;;;6292255;28;20059;-69
2023/11/06 01:13:26;;;;;;;10.27;4.78;;;14.30;67.20;;;;;;6267595;28;20025;-68
2023/11/06 01:16:27;;;;;;;19.73;4.75;;;14.20;67.40;;;;;;6267324;28;20051;-69
2023/11/06 01:19:28;;;;;;;8.60;4.40;;;14.10;67.70;;;;;;6272762;28;20123;-69
2023/11/06 01:22:29;;;;;;;8.52;4.60;;;14.10;67.90;;;;;;6292231;28;20498;-68
2023/11/06 01:25:30;;;;;;;8.75;4.15;;;14.10;68.10;;;;;;6291522;28;20472;-70
2023/11/06 01:28:31;;;;;;;11.55;3.40;;;14.10;68.10;;;;;;6291885;28;20118;-69
2023/11/06 01:31:32;;;;;;;8.77;4.38;;;14.10;68.10;;;;;;6293341;28;20487;-69
2023/11/06 01:34:33;;;;;;;7.93;3.97;;;14.20;68.20;;;;;;6293298;28;20770;-68
2023/11/06 01:37:33;;;;;;;7.60;3.70;;;14.10;68.10;;;;;;6291221;28;20037;-69
2023/11/06 01:40:34;;;;;;;7.50;4.57;;;14.10;68.10;;;;;;6292495;28;20032;-69
2023/11/06 01:43:35;;;;;;;11.23;3.92;;;14.20;68.00;;;;;;6259993;28;20139;-67
2023/11/06 01:46:37;;;;;;;8.38;4.05;;;14.10;67.90;;;;;;6249462;28;20063;-70
2023/11/06 01:49:39;;;;;;;9.50;4.20;;;14.10;67.90;;;;;;6266176;28;20119;-69
2023/11/06 01:52:40;;;;;;;20.27;4.10;;;14.10;67.80;;;;;;6266444;28;20145;-69
2023/11/06 01:55:42;;;;;;;8.38;3.45;;;14.10;67.90;;;;;;6268256;28;20152;-68
2023/11/06 01:58:44;;;;;;;5.65;3.60;;;14.00;67.80;;;;;;6265976;28;20033;-68
2023/11/06 02:01:50;;;;;;;8.23;3.67;;;14.00;67.90;;;;;;6266198;28;20032;-68
2023/11/06 02:04:51;;;;;;;12.07;3.80;;;14.00;68.00;;;;;;6265999;28;20041;-70
2023/11/06 02:07:52;;;;;;;8.10;4.40;;;13.90;68.00;;;;;;6267126;28;20074;-69
2023/11/06 02:10:54;;;;;;;7.68;3.92;;;13.90;68.40;;;;;;6271350;28;20369;-70
2023/11/06 02:13:55;;;;;;;6.10;3.83;;;13.80;68.70;;;;;;6296029;28;20017;-69
2023/11/06 02:16:55;;;;;;;13.55;4.47;;;13.70;68.80;;;;;;6297560;28;20341;-68
2023/11/06 02:19:56;;;;;;;8.20;4.05;;;13.70;69.10;;;;;;6292288;28;20468;-69
2023/11/06 02:23:03;;;;;;;10.55;4.55;;;13.70;69.20;;;;;;6267575;28;20079;-68
2023/11/06 02:26:05;;;;;;;9.82;3.72;;;13.60;69.20;;;;;;6285121;28;20172;-69
2023/11/06 02:29:07;;;;;;;9.30;3.90;;;13.70;69.30;;;;;;6277580;28;20070;-67
2023/11/06 02:32:08;;;;;;;7.30;4.32;;;13.70;69.30;;;;;;6289404;28;20028;-69
2023/11/06 02:35:09;;;;;;;10.65;4.55;;;13.60;69.20;;;;;;6301206;28;20555;-70
2023/11/06 02:38:09;;;;;;;7.07;4.20;;;13.60;69.20;;;;;;6290832;28;20449;-69
2023/11/06 02:41:11;;;;;;;6.35;3.95;;;13.60;69.40;;;;;;6293608;28;20451;-68
2023/11/06 02:44:12;;;;;;;6.50;3.72;;;13.50;69.50;;;;;;6270301;28;20334;-70
2023/11/06 02:47:13;;;;;;;9.40;4.25;;;13.60;69.50;;;;;;6266674;28;20036;-68
2023/11/06 02:50:14;;;;;;;7.80;3.67;;;13.50;69.60;;;;;;6248319;28;20040;-69
2023/11/06 02:53:15;;;;;;;7.72;4.18;;;13.50;69.70;;;;;;6286078;28;20121;-68
2023/11/06 02:56:15;;;;;;;7.80;3.75;;;13.50;69.70;;;;;;6290054;28;20028;-68
2023/11/06 02:59:17;;;;;;;6.93;3.33;;;13.50;69.70;;;;;;6289640;28;20043;-67
2023/11/06 03:02:18;;;;;;;7.70;3.83;;;13.50;69.70;;;;;;6289489;28;20036;-67
2023/11/06 03:05:19;;;;;;;7.13;3.85;;;13.50;69.80;;;;;;6290967;28;20032;-69
2023/11/06 03:08:19;;;;;;;10.60;3.47;;;13.60;69.70;;;;;;6272947;28;20580;-69
2023/11/06 03:11:21;;;;;;;9.38;3.75;;;13.60;69.50;;;;;;6290192;28;20493;-68
2023/11/06 03:14:22;;;;;;;6.95;3.80;;;13.60;69.40;;;;;;6289540;28;20025;-69
2023/11/06 03:17:23;;;;;;;8.82;4.03;;;13.70;69.40;;;;;;6283428;28;20024;-69
2023/11/06 03:20:24;;;;;;;10.68;4.15;;;13.60;69.20;;;;;;6289793;28;20090;-68
2023/11/06 03:23:25;;;;;;;4.22;2.80;;;13.60;69.40;;;;;;6289281;28;20086;-67
2023/11/06 03:26:26;;;;;;;7.25;3.08;;;13.60;69.30;;;;;;6291136;28;20029;-67
2023/11/06 03:29:27;;;;;;;9.02;3.00;;;13.50;69.30;;;;;;6289040;28;20549;-68
2023/11/06 03:32:28;;;;;;;6.32;2.55;;;13.40;69.50;;;;;;6288294;28;20496;-67
2023/11/06 03:35:29;;;;;;;5.78;3.38;;;13.40;69.70;;;;;;6291287;28;20029;-69
2023/11/06 03:38:30;;;;;;;5.50;3.28;;;13.30;70.00;;;;;;6290589;28;20130;-68
2023/11/06 03:41:33;;;;;;;8.30;3.13;;;13.30;70.10;;;;;;6289173;28;20028;-68
2023/11/06 03:44:36;;;;;;;15.50;3.30;;;13.30;70.30;;;;;;6288781;28;20025;-69
2023/11/06 03:47:37;;;;;;;7.45;3.83;;;13.20;70.30;;;;;;6288634;28;20529;-69
2023/11/06 03:50:42;;;;;;;8.32;4.00;;;13.20;70.30;;;;;;6289819;28;20482;-68
2023/11/06 03:53:43;;;;;;;6.05;2.95;;;13.20;70.20;;;;;;6264156;28;20143;-69
2023/11/06 03:56:44;;;;;;;5.53;3.42;;;13.20;70.30;;;;;;6263957;28;20361;-70
2023/11/06 03:59:45;;;;;;;6.30;3.60;;;13.20;70.40;;;;;;6265378;28;20369;-69
2023/11/06 04:02:46;;;;;;;7.55;4.03;;;13.10;70.50;;;;;;6264166;28;20060;-69
2023/11/06 04:05:47;;;;;;;4.88;2.75;;;13.00;70.60;;;;;;6265181;28;20033;-69
2023/11/06 04:08:47;;;;;;;5.13;2.67;;;13.10;70.90;;;;;;6263530;28;20472;-68
2023/11/06 04:11:48;;;;;;;7.90;3.60;;;13.00;71.00;;;;;;6265425;28;20056;-69
2023/11/06 04:14:49;;;;;;;7.13;3.95;;;12.90;71.20;;;;;;6290487;28;20062;-69
2023/11/06 04:17:51;;;;;;;7.75;4.20;;;12.90;71.40;;;;;;6288477;28;20377;-70
2023/11/06 04:20:52;;;;;;;4.82;3.70;;;12.80;72.40;;;;;;6289368;28;20039;-68
2023/11/06 04:23:53;;;;;;;6.40;3.80;;;12.80;71.70;;;;;;6291152;28;20044;-69
2023/11/06 04:26:54;;;;;;;5.90;3.35;;;12.80;71.70;;;;;;6303321;28;20111;-68
2023/11/06 04:29:55;;;;;;;6.82;3.97;;;12.80;71.70;;;;;;6287925;28;20024;-68
2023/11/06 04:32:55;;;;;;;10.57;3.80;;;12.80;71.60;;;;;;6287756;28;20032;-69
2023/11/06 04:35:59;;;;;;;6.43;2.80;;;12.80;71.30;;;;;;6287757;28;20056;-69
2023/11/06 04:38:59;;;;;;;5.00;3.20;;;12.80;71.40;;;;;;6288753;28;20085;-69
2023/11/06 04:42:01;;;;;;;5.90;2.97;;;12.90;71.50;;;;;;6287367;28;20047;-69
2023/11/06 04:45:04;;;;;;;5.35;3.10;;;12.90;71.30;;;;;;6287296;28;20464;-69
2023/11/06 04:48:06;;;;;;;7.25;3.25;;;12.90;71.20;;;;;;6286884;28;20097;-68
2023/11/06 04:51:07;;;;;;;4.53;2.60;;;12.90;71.00;;;;;;6288823;28;20371;-69
2023/11/06 04:54:08;;;;;;;4.18;2.65;;;12.90;71.00;;;;;;6289228;28;20036;-71
2023/11/06 04:57:09;;;;;;;4.10;2.00;;;13.00;71.10;;;;;;6289109;28;20138;-69
2023/11/06 05:00:10;;;;;;;5.40;2.75;;;13.00;71.00;;;;;;6287161;28;20074;-68
2023/11/06 05:03:11;;;;;;;4.72;2.90;;;13.00;70.80;;;;;;6270976;28;20063;-68
2023/11/06 05:06:12;;;;;;;5.40;3.03;;;13.00;70.80;;;;;;6287757;28;20040;-68
2023/11/06 05:09:13;;;;;;;5.78;3.05;;;13.00;70.80;;;;;;6287597;28;20119;-68
2023/11/06 05:12:14;;;;;;;9.23;3.67;;;13.00;71.00;;;;;;6266427;28;20032;-69
2023/11/06 05:15:15;;;;;;;5.85;3.33;;;13.10;71.10;;;;;;6264401;28;20385;-68
2023/11/06 05:18:16;;;;;;;6.13;3.35;;;13.10;70.90;;;;;;6284233;28;20832;-70
2023/11/06 05:21:26;;;;;;;6.47;3.65;;;13.10;70.90;;;;;;6287556;28;20040;-71
2023/11/06 05:24:29;;;;;;;4.38;3.03;;;13.10;70.80;;;;;;6270361;28;20093;-70
2023/11/06 05:27:30;;;;;;;5.07;3.05;;;13.20;70.70;;;;;;6270399;28;20029;-69
2023/11/06 05:30:31;;;;;;;4.40;2.80;;;13.20;70.60;;;;;;6286862;28;20477;-72
2023/11/06 05:33:32;;;;;;;5.03;3.45;;;13.20;70.70;;;;;;6286956;28;20116;-69
2023/11/06 05:36:33;;;;;;;4.72;2.58;;;13.30;70.70;;;;;;6286986;28;20412;-70
2023/11/06 05:39:36;;;;;;;4.60;2.80;;;13.30;70.70;;;;;;6288035;28;20031;-71
2023/11/06 05:42:37;;;;;;;8.23;3.17;;;13.30;70.60;;;;;;6288358;28;20048;-69
2023/11/06 05:45:37;;;;;;;5.40;3.08;;;13.40;70.40;;;;;;6288356;28;20036;-69
2023/11/06 05:48:38;;;;;;;4.47;2.60;;;13.40;70.40;;;;;;6288308;28;20107;-69
2023/11/06 05:51:39;;;;;;;9.45;2.97;;;13.40;70.30;;;;;;6287150;28;20032;-70
2023/11/06 05:54:40;;;;;;;4.05;2.58;;;13.40;70.30;;;;;;6290565;28;20020;-70
2023/11/06 05:57:41;;;;;;;9.63;2.83;;;13.40;70.40;;;;;;6293202;28;20097;-70
2023/11/06 06:00:42;;;;;;;3.33;2.20;;;13.50;70.30;;;;;;6291311;28;20036;-69
2023/11/06 06:03:43;;;;;;;5.13;2.35;;;13.50;70.00;;;;;;6292992;28;20377;-69
2023/11/06 06:06:44;;;;;;;7.50;3.05;;;13.50;69.90;;;;;;6279707;28;20029;-72
2023/11/06 06:09:45;;;;;;;5.63;2.83;;;13.50;69.70;;;;;;6266007;28;20029;-68
2023/11/06 06:12:47;;;;;;;5.40;2.70;;;13.60;69.60;;;;;;6285262;28;20059;-70
2023/11/06 06:15:48;;;;;;;9.63;2.95;;;13.50;69.50;;;;;;6291989;28;20040;-70
2023/11/06 06:18:49;;;;;;;5.82;2.58;;;13.50;69.70;;;;;;6291861;28;20037;-68
2023/11/06 06:21:50;;;;;;;6.82;2.42;;;13.60;69.80;;;;;;6284522;28;20460;-68
2023/11/06 06:24:51;;;;;;;4.80;2.85;;;13.60;69.70;;;;;;6280043;28;20072;-69
2023/11/06 06:27:52;;;;;;;4.88;2.53;;;13.60;69.50;;;;;;6281830;28;20358;-69
2023/11/06 06:30:53;;;;;;;5.47;2.30;;;13.60;69.40;;;;;;6279993;28;20022;-68
2023/11/06 06:33:54;;;;;;;4.82;2.60;;;13.60;69.50;;;;;;6278365;28;20362;-68
2023/11/06 06:36:55;;;;;;;5.00;2.88;;;13.60;69.30;;;;;;6280424;28;20640;-68
2023/11/06 06:39:56;;;;;;;8.57;3.03;;;13.60;69.30;;;;;;6279818;28;20448;-69
2023/11/06 06:42:57;;;;;;;3.25;2.20;;;13.60;69.10;;;;;;6281768;28;20066;-69
2023/11/06 06:45:58;;;;;;;5.03;2.78;;;13.60;69.10;;;;;;6281221;28;20436;-69
2023/11/06 06:53:16;;;;;;;3.75;2.20;;;13.50;69.20;;;;;;6267010;23;20040;-69
2023/11/06 06:56:17;;;;;;;5.45;2.60;;;13.50;69.30;;;;;;6214880;28;20031;-69
2023/11/06 06:59:18;;;;;;;4.65;2.50;;;13.50;69.30;;;;;;6204147;28;20036;-68
2023/11/06 07:02:19;;;;;;;4.72;2.75;;;13.60;69.30;;;;;;6242021;28;20117;-70
2023/11/06 07:05:20;;;;;;;6.20;2.30;;;13.60;69.20;;;;;;6147702;28;20339;-71
2023/11/06 07:08:21;;;;;;;5.13;2.28;;;13.60;69.20;;;;;;6140813;28;20226;-69
2023/11/06 07:11:22;;;;;;;7.70;2.25;;;13.60;69.10;;;;;;6175744;28;20067;-68
2023/11/06 07:14:24;;;;;;;7.32;2.75;;;13.70;69.10;;;;;;6265955;28;20542;-69
2023/11/06 07:17:25;;;;;;;5.47;2.35;;;13.70;68.90;;;;;;6266681;28;20691;-69
2023/11/06 07:20:26;;;;;;;4.65;2.38;;;13.80;69.00;;;;;;6265439;28;20044;-69
2023/11/06 07:23:26;;;;;;;3.70;2.25;;;13.80;68.70;;;;;;6266033;28;20044;-70
2023/11/06 07:26:28;;;;;;;4.35;2.55;;;13.90;68.50;;;;;;6266433;28;20029;-69
2023/11/06 07:29:28;;;;;;;9.18;3.25;;;13.90;68.40;;;;;;6188548;28;20513;-70
2023/11/06 07:32:29;;;;;;;4.00;2.40;;;13.90;68.40;;;;;;6141020;28;20047;-68
2023/11/06 07:35:30;;;;;;;6.15;2.25;;;13.90;68.30;;;;;;6141250;28;20028;-70
2023/11/06 07:38:32;;;;;;;6.97;2.65;;;13.90;68.30;;;;;;6140199;29;20070;-69
2023/11/06 07:41:33;;;;;;;3.47;1.95;;;14.10;68.50;;;;;;6139166;28;20428;-68
2023/11/06 07:44:37;;;;;;;4.85;2.53;;;14.10;68.30;;;;;;6140878;28;20031;-69
2023/11/06 07:47:39;;;;;;;5.18;2.33;;;14.10;67.90;;;;;;6140125;28;20161;-69
2023/11/06 07:50:40;;;;;;;7.88;2.55;;;14.10;67.90;;;;;;6138663;28;20031;-69
2023/11/06 07:53:41;;;;;;;5.43;2.67;;;14.20;68.00;;;;;;6139181;28;20104;-70
2023/11/06 07:56:45;;;;;;;8.27;3.20;;;14.20;68.00;;;;;;6140774;28;20092;-71
2023/11/06 07:59:46;;;;;;;5.50;2.55;;;14.30;67.80;;;;;;6139932;28;20097;-69
2023/11/06 08:02:47;;;;;;;18.23;2.72;;;14.40;67.80;;;;;;6181106;28;20040;-70
2023/11/06 08:05:48;;;;;;;11.75;2.80;;;14.50;67.60;;;;;;6264554;28;20044;-70
2023/11/06 08:08:49;;;;;;;7.10;2.85;;;14.50;67.50;;;;;;6243567;28;20035;-70
2023/11/06 08:11:50;;;;;;;4.20;2.47;;;14.60;67.40;;;;;;6149624;28;20027;-70
2023/11/06 08:14:51;;;;;;;4.25;2.35;;;14.60;67.30;;;;;;6164365;28;20031;-71
2023/11/06 08:17:54;;;;;;;5.93;2.20;;;14.60;67.00;;;;;;6163309;28;20126;-70
2023/11/06 08:20:55;;;;;;;4.80;2.20;;;14.60;66.80;;;;;;6173584;28;20050;-69
2023/11/06 08:23:56;;;;;;;5.05;2.75;;;14.60;66.80;;;;;;6170911;28;20039;-70
2023/11/06 08:26:57;;;;;;;6.55;2.85;;;14.50;66.60;;;;;;6176517;28;20031;-69
2023/11/06 08:29:58;;;;;;;4.70;2.72;;;14.50;66.70;;;;;;6164110;28;20079;-70
2023/11/06 08:32:59;;;;;;;6.60;2.60;;;14.50;66.70;;;;;;6162774;28;20427;-69
2023/11/06 08:36:00;;;;;;;5.60;2.78;;;14.50;66.50;;;;;;6163601;28;20101;-71
2023/11/06 08:39:01;;;;;;;7.68;2.53;;;14.40;66.50;;;;;;6161525;28;20022;-70
2023/11/06 08:42:04;;;;;;;9.93;3.28;;;14.40;66.50;;;;;;6162949;28;20027;-71
2023/11/06 08:45:06;;;;;;;5.25;2.75;;;14.40;66.60;;;;;;6163313;28;20099;-70
2023/11/06 08:48:07;;;;;;;11.65;2.97;;;14.40;66.60;;;;;;6163022;28;20057;-69
2023/11/06 08:51:08;;;;;;;3.88;2.40;;;14.40;66.50;;;;;;6158261;28;20056;-70
2023/11/06 08:54:10;;;;;;;3.60;2.25;;;14.30;66.70;;;;;;6146711;28;20047;-70
2023/11/06 08:57:12;;;;;;;5.22;2.65;;;14.30;66.90;;;;;;6264015;28;20056;-69
2023/11/06 09:00:14;;;;;;;3.95;2.63;;;14.30;67.10;;;;;;6263662;28;20018;-71
2023/11/06 09:03:15;;;;;;;8.15;3.13;;;14.40;67.20;;;;;;6202010;28;20478;-69
2023/11/06 09:06:16;;;;;;;6.82;3.28;;;14.40;67.30;;;;;;6137550;29;20034;-69
2023/11/06 09:09:18;;;;;;;4.63;2.67;;;14.50;67.50;;;;;;6137766;28;20023;-70
2023/11/06 09:12:21;;;;;;;14.88;3.20;;;14.50;67.20;;;;;;6152671;28;20031;-70
2023/11/06 09:15:22;;;;;;;4.72;3.10;;;14.70;67.00;;;;;;6162778;28;20054;-70
2023/11/06 09:18:24;;;;;;;10.52;3.38;;;14.80;67.00;;;;;;6162649;28;20450;-70
2023/11/06 09:21:25;;;;;;;6.15;2.90;;;15.00;66.70;;;;;;6163245;28;20117;-70
2023/11/06 09:24:29;;;;;;;10.13;4.07;;;15.20;66.30;;;;;;6162881;28;20031;-70
2023/11/06 09:27:29;;;;;;;7.95;2.83;;;15.30;66.00;;;;;;6161603;28;20058;-68
2023/11/06 09:30:30;;;;;;;5.38;3.00;;;15.50;65.40;;;;;;6164934;28;20054;-71
2023/11/06 09:33:31;;;;;;;6.32;3.05;;;15.60;65.00;;;;;;6143254;28;20066;-70
2023/11/06 09:36:32;;;;;;;9.15;3.22;;;15.60;64.90;;;;;;6141021;28;20076;-71
2023/11/06 09:39:34;;;;;;;7.13;3.60;;;15.70;64.80;;;;;;6142523;28;20043;-71
2023/11/06 09:42:35;;;;;;;7.93;2.88;;;15.80;64.60;;;;;;6140909;29;20035;-69
2023/11/06 09:45:35;;;;;;;8.18;3.95;;;15.80;64.30;;;;;;6140865;29;20082;-69
2023/11/06 09:48:37;;;;;;;6.78;3.40;;;15.90;64.20;;;;;;6142075;28;20081;-70
2023/11/06 09:51:41;;;;;;;14.00;3.65;;;16.00;64.00;;;;;;6142471;28;20102;-70
2023/11/06 09:54:44;;;;;;;6.65;3.53;;;16.10;63.70;;;;;;6125493;28;20120;-69
2023/11/06 09:57:50;;;;;;;6.25;2.88;;;16.20;63.20;;;;;;6142603;28;20034;-70
2023/11/06 10:00:51;;;;;;;6.97;3.00;;;16.30;63.20;;;;;;6141743;28;20035;-69
2023/11/06 10:03:52;;;;;;;4.95;3.05;;;16.50;62.80;;;;;;6141062;28;20063;-68
2023/11/06 10:06:53;;;;;;;7.95;2.78;;;16.60;62.20;;;;;;6141877;29;20031;-70
2023/11/06 10:10:10;;;;;;;9.68;3.30;;;16.70;61.90;;;;;;6142373;28;20065;-70
2023/11/06 10:13:13;;;;;;;4.65;2.47;;;16.90;62.20;;;;;;6164045;28;20027;-69
2023/11/06 10:16:22;;;;;;;3.20;2.35;;;17.20;61.80;;;;;;6165990;28;20143;-69
2023/11/06 10:19:24;;;;;;;6.53;2.33;;;17.50;60.70;;;;;;6166939;28;20031;-70
2023/11/06 10:22:26;;;;;;;5.95;1.80;;;17.90;59.80;;;;;;6167483;28;20031;-70
2023/11/06 10:25:28;;;;;;;7.28;2.08;;;18.30;59.00;;;;;;6165788;28;20035;-71
2023/11/06 10:28:30;;;;;;;7.40;2.65;;;18.60;58.20;;;;;;6164262;28;20039;-69
2023/11/06 10:31:44;;;;;;;15.85;2.80;;;19.00;57.60;;;;;;6156470;28;20019;-68
2023/11/06 10:34:46;;;;;;;6.80;3.10;;;19.40;56.80;;;;;;6139999;28;20359;-68
2023/11/06 10:37:48;;;;;;;6.88;2.15;;;19.80;55.20;;;;;;6140014;28;20035;-69
2023/11/06 10:40:49;;;;;;;9.30;2.65;;;20.10;53.80;;;;;;6139267;28;20054;-70
2023/11/06 10:43:59;;;;;;;10.10;2.75;;;20.30;53.90;;;;;;6141805;28;20038;-69
2023/11/06 10:47:06;;;;;;;8.75;2.92;;;20.60;52.70;;;;;;6125112;28;20031;-69
2023/11/06 10:50:11;;;;;;;15.40;6.43;;;20.70;52.20;;;;;;6141711;28;20039;-69
2023/11/06 10:53:13;;;;;;;9.15;3.00;;;20.80;51.80;;;;;;6141508;28;20459;-70
2023/11/06 10:56:16;;;;;;;8.43;2.58;;;20.60;51.90;;;;;;6140434;28;20118;-70
2023/11/06 10:59:17;;;;;;;6.20;2.58;;;20.50;52.60;;;;;;6142118;28;20130;-69
2023/11/06 11:02:51;;;;;;;3.90;1.80;;;20.50;52.90;;;;;;6139856;28;20220;-70
2023/11/06 11:05:55;;;;;;;11.07;2.05;;;20.40;52.90;;;;;;6139283;28;20184;-69
2023/11/06 11:08:57;;;;;;;2.95;1.88;;;20.40;53.10;;;;;;6140697;28;20081;-68
2023/11/06 11:12:01;;;;;;;9.65;2.33;;;20.30;53.10;;;;;;6152988;28;20401;-69
2023/11/06 11:15:05;;;;;;;6.40;2.10;;;20.20;53.20;;;;;;6164874;28;20164;-70
2023/11/06 11:18:13;;;;;;;4.65;2.22;;;20.10;53.50;;;;;;6164782;28;20066;-70
2023/11/06 11:21:14;;;;;;;4.97;2.35;;;20.10;53.80;;;;;;6164878;28;20034;-69
2023/11/06 11:24:47;;;;;;;12.13;4.13;;;20.10;54.10;;;;;;6164580;28;20075;-71
2023/11/06 11:28:12;;;;;;;7.57;2.40;;;20.10;54.10;;;;;;6164400;28;20046;-69
2023/11/06 11:31:34;;;;;;;13.10;4.53;;;20.00;53.70;;;;;;6158228;28;20433;-69
2023/11/06 11:34:35;;;;;;;4.38;2.42;;;19.90;53.60;;;;;;6140941;28;20187;-70
2023/11/06 11:37:40;;;;;;;5.55;2.70;;;19.80;53.90;;;;;;6140948;28;20150;-69
2023/11/06 11:40:41;;;;;;;7.00;2.33;;;19.80;54.20;;;;;;6139114;28;20035;-72
2023/11/06 11:43:44;;;;;;;5.38;2.33;;;19.70;54.50;;;;;;6140905;28;20061;-72
2023/11/06 11:46:45;;;;;;;6.55;2.10;;;19.80;54.50;;;;;;6140896;28;20027;-69
2023/11/06 11:49:47;;;;;;;4.90;2.55;;;19.90;54.50;;;;;;6140571;28;20541;-70
2023/11/06 11:52:51;;;;;;;4.03;2.45;;;20.00;54.60;;;;;;6138403;28;20046;-70
2023/11/06 11:55:52;;;;;;;3.72;1.85;;;20.10;54.30;;;;;;6140730;28;20035;-71
2023/11/06 11:58:52;;;;;;;9.85;1.70;;;20.20;54.10;;;;;;6138516;28;20108;-70
2023/11/06 12:01:53;;;;;;;2.38;1.10;;;20.20;53.70;;;;;;6138588;28;20035;-70
2023/11/06 12:04:59;;;;;;;4.72;1.40;;;20.20;52.90;;;;;;6140561;28;20046;-70
2023/11/06 12:08:12;;;;;;;4.07;1.60;;;20.30;52.60;;;;;;6138666;28;20089;-71
2023/11/06 12:11:13;;;;;;;3.28;1.73;;;20.40;52.70;;;;;;6146226;28;20122;-70
2023/11/06 12:14:14;;;;;;;4.90;2.40;;;20.50;52.10;;;;;;6163886;28;20075;-69
2023/11/06 12:17:29;;;;;;;12.10;2.58;;;20.50;51.70;;;;;;6164507;28;20490;-69
2023/11/06 12:20:32;;;;;;;6.32;2.00;;;20.40;52.10;;;;;;6163992;28;20030;-70
2023/11/06 12:23:34;;;;;;;4.45;2.58;;;20.30;52.40;;;;;;6163841;28;20054;-69
2023/11/06 12:26:49;;;;;;;8.10;2.30;;;20.20;52.70;;;;;;6163576;28;20507;-71
2023/11/06 12:30:00;;;;;;;6.15;2.53;;;20.10;53.00;;;;;;6163105;28;20097;-70
2023/11/06 12:33:14;;;;;;;3.90;1.92;;;20.10;53.10;;;;;;6140841;28;20063;-70
2023/11/06 12:36:28;;;;;;;3.05;1.50;;;20.10;53.00;;;;;;6121969;28;20105;-70
2023/11/06 12:39:33;;;;;;;3.92;1.67;;;20.10;53.20;;;;;;6138022;28;20035;-70
2023/11/06 12:42:34;;;;;;;4.07;1.85;;;20.00;53.30;;;;;;6138671;29;20051;-71
2023/11/06 12:45:40;;;;;;;7.32;1.77;;;19.80;53.20;;;;;;6139998;28;20045;-70
2023/11/06 12:48:41;;;;;;;4.38;1.85;;;19.80;53.60;;;;;;6138162;28;20078;-69
2023/11/06 12:51:42;;;;;;;5.07;1.80;;;19.60;53.80;;;;;;6139657;28;20058;-70
2023/11/06 12:54:44;;;;;;;7.32;1.90;;;19.60;54.10;;;;;;6138126;29;20043;-69
2023/11/06 12:57:45;;;;;;;6.43;1.77;;;19.60;54.10;;;;;;6137948;28;20044;-69
2023/11/06 13:00:55;;;;;;;4.78;1.90;;;19.70;54.30;;;;;;6139298;28;20086;-71
2023/11/06 13:03:55;;;;;;;5.85;1.65;;;19.70;54.30;;;;;;6232531;28;20033;-70
2023/11/06 13:06:58;;;;;;;6.32;1.77;;;19.70;54.40;;;;;;6267884;28;20078;-70
2023/11/06 13:09:59;;;;;;;5.93;2.63;;;19.80;54.40;;;;;;6268474;28;20047;-69
2023/11/06 13:13:00;;;;;;;6.55;2.53;;;19.80;54.50;;;;;;6182468;28;20051;-71
2023/11/06 13:16:03;;;;;;;6.40;1.48;;;19.80;54.60;;;;;;6166129;28;20027;-70
2023/11/06 13:19:05;;;;;;;8.30;1.98;;;19.80;54.60;;;;;;6149859;28;20046;-71
2023/11/06 13:22:07;;;;;;;1.95;1.20;;;19.80;54.50;;;;;;6166211;28;20023;-69
2023/11/06 13:25:08;;;;;;;9.80;1.95;;;19.80;54.50;;;;;;6166113;28;20104;-70
2023/11/06 13:28:10;;;;;;;3.15;1.35;;;19.90;54.40;;;;;;6166898;28;20615;-69
2023/11/06 13:31:11;;;;;;;4.65;1.52;;;19.90;54.30;;;;;;6161060;28;20026;-70
2023/11/06 13:34:12;;;;;;;2.53;1.52;;;20.00;54.20;;;;;;6142430;28;20151;-70
2023/11/06 13:37:13;;;;;;;5.50;2.20;;;20.00;54.00;;;;;;6147061;28;20126;-71
2023/11/06 13:40:29;;;;;;;4.10;1.88;;;19.90;54.30;;;;;;6149384;28;20123;-69
2023/11/06 13:43:30;;;;;;;5.05;1.70;;;19.80;54.50;;;;;;6144159;28;20132;-71
2023/11/06 13:46:31;;;;;;;1.42;1.10;;;19.80;54.60;;;;;;6141665;28;20476;-70
2023/11/06 13:49:33;;;;;;;4.40;1.60;;;19.80;54.50;;;;;;6125304;28;20035;-70
2023/11/06 13:52:42;;;;;;;7.80;1.77;;;19.90;54.50;;;;;;6141191;28;20104;-72
2023/11/06 13:55:49;;;;;;;6.20;1.90;;;20.00;54.50;;;;;;6141602;29;20110;-69
2023/11/06 13:58:50;;;;;;;8.40;2.60;;;19.90;54.80;;;;;;6143393;28;20050;-69
2023/11/06 14:01:51;;;;;;;3.30;1.60;;;19.90;54.30;;;;;;6148902;28;20075;-70
2023/11/06 14:04:57;;;;;;;4.20;1.88;;;19.90;54.10;;;;;;6269263;28;20033;-70
2023/11/06 14:08:01;;;;;;;4.47;1.85;;;20.00;53.80;;;;;;6270823;28;20400;-69
2023/11/06 14:11:05;;;;;;;6.22;2.58;;;20.00;53.80;;;;;;6248260;28;20096;-70
2023/11/06 14:14:06;;;;;;;4.88;2.42;;;20.00;53.80;;;;;;6168249;28;20023;-68
2023/11/06 14:17:07;;;;;;;4.57;1.67;;;20.00;54.00;;;;;;6169131;28;20560;-72
2023/11/06 14:20:10;;;;;;;4.78;1.75;;;19.90;54.10;;;;;;6151726;28;20035;-68
2023/11/06 14:23:11;;;;;;;5.13;1.77;;;19.90;54.20;;;;;;6169038;28;20037;-70
2023/11/06 14:26:13;;;;;;;5.68;2.00;;;19.90;54.20;;;;;;6168854;28;20142;-70
2023/11/06 14:29:15;;;;;;;7.07;1.90;;;19.80;54.30;;;;;;6167079;28;20065;-70
2023/11/06 14:32:16;;;;;;;7.57;2.20;;;19.70;54.60;;;;;;6153340;28;20023;-69
2023/11/06 14:35:17;;;;;;;4.30;1.92;;;19.70;54.60;;;;;;6145512;28;20450;-70
2023/11/06 14:38:18;;;;;;;3.67;1.52;;;19.70;54.50;;;;;;6144984;28;20031;-69
2023/11/06 14:41:19;;;;;;;2.50;1.30;;;19.70;54.30;;;;;;6127567;28;20443;-69
2023/11/06 14:44:19;;;;;;;6.97;1.52;;;19.70;54.00;;;;;;6144681;28;20031;-70
2023/11/06 14:47:21;;;;;;;13.60;2.60;;;19.60;54.00;;;;;;6143400;28;20376;-69
2023/11/06 14:50:21;;;;;;;7.93;3.40;;;19.40;54.20;;;;;;6144682;28;20027;-69
2023/11/06 14:53:23;;;;;;;5.43;1.92;;;19.30;54.40;;;;;;6144976;28;20035;-68
2023/11/06 14:56:24;;;;;;;4.88;1.80;;;19.30;54.60;;;;;;6143934;28;20093;-70
2023/11/06 14:59:24;;;;;;;3.72;1.70;;;19.20;54.70;;;;;;6144011;28;20115;-69
2023/11/06 15:02:25;;;;;;;6.40;1.90;;;19.20;54.80;;;;;;6168057;28;20029;-70
2023/11/06 15:05:29;;;;;;;5.78;2.05;;;19.20;54.80;;;;;;6267243;28;20025;-69
2023/11/06 15:08:30;;;;;;;6.68;2.13;;;19.20;54.90;;;;;;6267302;28;20029;-72
2023/11/06 15:11:32;;;;;;;2.70;1.58;;;19.10;54.80;;;;;;6222568;28;20027;-70
2023/11/06 15:14:33;;;;;;;3.88;1.73;;;19.10;54.90;;;;;;6142021;28;20023;-71
2023/11/06 15:17:34;;;;;;;7.38;2.38;;;19.00;55.10;;;;;;6140464;28;20180;-69
2023/11/06 15:20:35;;;;;;;7.50;2.28;;;19.00;55.10;;;;;;6140169;28;20035;-70
2023/11/06 15:23:36;;;;;;;11.60;2.15;;;19.00;55.20;;;;;;6142025;28;20047;-70
2023/11/06 15:26:36;;;;;;;3.72;1.70;;;18.90;55.20;;;;;;6140745;28;20027;-70
2023/11/06 15:29:37;;;;;;;5.20;1.83;;;18.90;55.30;;;;;;6141778;28;20049;-70
2023/11/06 15:32:42;;;;;;;9.15;1.95;;;19.00;55.40;;;;;;6142634;28;20491;-71
2023/11/06 15:35:43;;;;;;;8.20;2.40;;;19.00;55.40;;;;;;6156864;28;20046;-70
2023/11/06 15:38:44;;;;;;;3.92;1.80;;;19.00;56.00;;;;;;6143631;28;20428;-70
2023/11/06 15:41:45;;;;;;;3.95;2.13;;;18.90;55.40;;;;;;6140440;28;20448;-70
2023/11/06 15:44:45;;;;;;;5.72;1.60;;;19.00;55.50;;;;;;6140081;28;20059;-70
2023/11/06 15:47:46;;;;;;;3.53;1.63;;;19.00;55.50;;;;;;6141502;28;20059;-69
2023/11/06 15:50:48;;;;;;;4.55;1.70;;;19.00;55.30;;;;;;6139206;28;20461;-70